• Join FlightAware (Why Join?)
  • Login
  • US Flag 
06:27PM EDT


 

Airport Tracker/Info


-or-


 

Live Flight TrackerFlight Track Log ✈ SWA652 ✈ 18-Jun-2013 ✈ KPHX - KMDW

Flight Track Log - Related Links

Times and Time Zones

All times are in EDT time to prevent confusion due to time zone crossing. See the SWA652 flight status page for this flight to view local times or setup timezone preferences in your user account.

Time Position Orientation Groundspeed Altitude Reporting Facility
EDT Latitude Longitude Course Direction KTS MPH feet Rate Location/Type
02:16PM 33.4333 -111.9833 90° East 202 232 1,800  Level Phoenix TRACON
02:17PM 33.4333 -111.9167 90° East 188 216 3,800 2,280 Climbing Phoenix TRACON
02:18PM 33.4500 -111.8500 73° East 233 268 6,400 2,400 Climbing Phoenix TRACON
02:19PM 33.5000 -111.7833 48° Northeast 283 326 8,600 1,980 Climbing Phoenix TRACON
02:21PM 33.5444 -111.6717 64° Northeast 325 374 11,100 2,580 Climbing Albuquerque Center
02:22PM 33.5908 -111.5397 67° East 358 412 14,700 2,820 Climbing Albuquerque Center
02:23PM 33.6322 -111.4247 67° East 376 433 17,000 2,340 Climbing Albuquerque Center
02:24PM 33.6767 -111.3025 66° East 401 461 19,600 2,340 Climbing Albuquerque Center
02:25PM 33.7206 -111.1753 67° East 414 476 21,900 2,100 Climbing Albuquerque Center
02:26PM 33.7686 -111.0428 66° East 433 498 24,000 1,860 Climbing Albuquerque Center
02:27PM 33.8178 -110.9042 67° East 446 513 25,800 1,860 Climbing Albuquerque Center
02:28PM 33.8786 -110.7300 67° East 466 536 27,900 1,800 Climbing Albuquerque Center
02:29PM 33.9322 -110.5808 67° East 480 552 29,500 1,500 Climbing Albuquerque Center
02:30PM 33.9847 -110.4269 68° East 493 567 31,100 1,800 Climbing Albuquerque Center
02:31PM 34.0408 -110.2683 67° East 498 573 33,300 1,860 Climbing Albuquerque Center
02:32PM 34.0933 -110.1181 67° East 493 567 35,000 1,500 Climbing Albuquerque Center
02:33PM 34.1503 -109.9547 67° East 484 557 36,500 960 Climbing Albuquerque Center
02:34PM 34.1994 -109.8092 68° East 487 560 37,000 240 Climbing Albuquerque Center
02:35PM 34.2561 -109.6403 68° East 487 560 37,000  Level Albuquerque Center
02:36PM 34.3072 -109.4939 67° East 491 565 37,000  Level Albuquerque Center
02:37PM 34.3642 -109.3239 68° East 490 564 37,000  Level Albuquerque Center
02:38PM 34.4131 -109.1772 68° East 491 565 37,000  Level Albuquerque Center
02:39PM 34.4644 -109.0047 70° East 489 563 37,000  Level Albuquerque Center
02:40PM 34.5056 -108.8547 72° East 490 564 37,000  Level Albuquerque Center
02:41PM 34.5689 -108.7189 60° Northeast 485 558 37,000  Level Albuquerque Center
02:42PM 34.6419 -108.5614 61° Northeast 482 555 37,000  Level Albuquerque Center
02:43PM 34.7097 -108.4119 61° Northeast 486 559 37,000  Level Albuquerque Center
02:44PM 34.7756 -108.2686 61° Northeast 486 559 37,000  Level Albuquerque Center
02:45PM 34.8414 -108.1258 61° Northeast 485 558 37,000  Level Albuquerque Center
02:46PM 34.9133 -107.9667 61° Northeast 486 559 37,000  Level Albuquerque Center
02:47PM 34.9758 -107.8294 61° Northeast 485 558 37,000  Level Albuquerque Center
02:48PM 35.0378 -107.6922 61° Northeast 487 560 37,000  Level Albuquerque Center
02:50PM 35.1108 -107.5303 61° Northeast 486 559 37,000  Level Albuquerque Center
02:51PM 35.1689 -107.4003 61° Northeast 489 563 37,000  Level Albuquerque Center
02:52PM 35.2344 -107.2539 61° Northeast 488 562 37,000  Level Albuquerque Center
02:53PM 35.3061 -107.0881 62° Northeast 488 562 37,000  Level Albuquerque Center
02:54PM 35.3764 -106.9286 62° Northeast 479 551 37,000  Level Albuquerque Center
02:55PM 35.4419 -106.7847 61° Northeast 485 558 37,000  Level Albuquerque Center
02:56PM 35.5056 -106.6389 62° Northeast 482 555 37,000  Level Albuquerque Center
02:57PM 35.5694 -106.4939 62° Northeast 482 555 37,000  Level Albuquerque Center
02:58PM 35.6317 -106.3494 62° Northeast 479 551 37,000  Level Albuquerque Center
02:59PM 35.7008 -106.1892 62° Northeast 483 556 37,000  Level Albuquerque Center
03:00PM 35.7572 -106.0553 63° Northeast 483 556 37,000  Level Albuquerque Center
03:01PM 35.8203 -105.9083 62° Northeast 485 558 37,000  Level Albuquerque Center
03:02PM 35.8825 -105.7608 62° Northeast 486 559 37,000  Level Albuquerque Center
03:03PM 35.9575 -105.5825 63° Northeast 487 560 37,000  Level Albuquerque Center
03:04PM 36.0153 -105.4433 63° Northeast 486 559 37,000  Level Albuquerque Center
03:05PM 36.0783 -105.2919 63° Northeast 487 560 37,000  Level Albuquerque Center
03:06PM 36.1408 -105.1411 63° Northeast 487 560 37,000  Level Albuquerque Center
03:07PM 36.2150 -104.9647 62° Northeast 487 560 37,000  Level Albuquerque Center
03:08PM 36.2767 -104.8133 63° Northeast 486 559 37,000  Level Albuquerque Center
03:09PM 36.3378 -104.6653 63° Northeast 480 552 37,000  Level Albuquerque Center
03:10PM 36.3994 -104.5133 63° Northeast 484 557 37,000  Level Albuquerque Center
03:11PM 36.4611 -104.3636 63° Northeast 483 556 37,000  Level Albuquerque Center
03:12PM 36.5219 -104.2139 63° Northeast 481 554 37,000  Level Albuquerque Center
03:13PM 36.5611 -104.0517 73° East 491 565 37,000  Level Albuquerque Center
03:14PM 36.5942 -103.8875 76° East 485 558 37,000  Level Albuquerque Center
03:15PM 36.6261 -103.7197 77° East 488 562 37,000  Level Albuquerque Center
03:16PM 36.6600 -103.5439 76° East 487 560 37,000  Level Albuquerque Center
03:17PM 36.6917 -103.3856 76° East 490 564 37,000  Level Albuquerque Center
03:18PM 36.7264 -103.2022 77° East 489 563 37,000 420 Level Albuquerque Center
03:19PM 36.7592 -103.0417 76° East 496 571 37,900 960 Climbing Albuquerque Center
03:20PM 36.7967 -102.8550 76° East 498 573 39,000 480 Climbing Albuquerque Center
03:21PM 36.8439 -102.7044 69° East 490 564 39,000  Level Albuquerque Center
03:22PM 36.9183 -102.5389 61° Northeast 490 564 39,000  Level Albuquerque Center
03:23PM 36.9839 -102.3903 61° Northeast 491 565 39,000  Level Albuquerque Center
03:24PM 37.0453 -102.2481 62° Northeast 487 560 39,000  Level Albuquerque Center
03:25PM 37.1178 -102.0817 61° Northeast 487 560 39,000  Level Albuquerque Center
03:27PM 37.1975 -101.9597 51° Northeast 476 548 39,000  Level Albuquerque Center
03:28PM 37.3189 -101.8183 43° Northeast 468 539 39,000  Level Kansas City Center
03:29PM 37.4094 -101.7131 43° Northeast 465 535 39,000  Level Kansas City Center
03:30PM 37.5169 -101.5903 42° Northeast 466 536 39,000  Level Kansas City Center
03:31PM 37.6094 -101.4847 42° Northeast 466 536 39,000  Level Kansas City Center
03:32PM 37.7022 -101.3811 41° Northeast 464 534 39,000  Level Kansas City Center
03:33PM 37.8114 -101.2583 42° Northeast 465 535 39,000  Level Kansas City Center
03:34PM 37.9056 -101.1525 42° Northeast 468 539 39,000  Level Kansas City Center
03:35PM 38.0153 -101.0289 42° Northeast 469 540 39,000  Level Kansas City Center
03:36PM 38.0986 -100.9064 49° Northeast 484 557 39,000  Level Kansas City Center
03:37PM 38.1478 -100.7528 68° East 488 562 39,000  Level Kansas City Center
03:38PM 38.2011 -100.5692 70° East 492 566 39,000  Level Kansas City Center
03:39PM 38.2439 -100.4131 71° East 489 563 39,000  Level Kansas City Center
03:40PM 38.2942 -100.2317 70° East 486 559 39,000  Level Kansas City Center
03:41PM 38.3378 -100.0756 70° East 488 562 39,000  Level Kansas City Center
03:42PM 38.3889 -99.8942 70° East 487 560 39,000  Level Kansas City Center
03:43PM 38.4317 -99.7383 71° East 487 560 39,000  Level Kansas City Center
03:44PM 38.4808 -99.5572 71° East 485 558 39,000  Level Kansas City Center
03:45PM 38.5256 -99.3981 70° East 484 557 39,000  Level Kansas City Center
03:46PM 38.5686 -99.2378 71° East 479 551 39,000  Level Kansas City Center
03:47PM 38.6128 -99.0792 70° East 474 545 39,000  Level Kansas City Center
03:48PM 38.6550 -98.9200 71° East 472 543 39,000  Level Kansas City Center
03:49PM 38.7172 -98.7733 61° Northeast 466 536 39,000  Level Kansas City Center
03:50PM 38.7900 -98.6378 55° Northeast 461 531 39,000  Level Kansas City Center
03:51PM 38.8619 -98.5028 56° Northeast 457 526 39,000  Level Kansas City Center
03:52PM 38.9497 -98.3381 56° Northeast 464 534 39,000  Level Kansas City Center
03:54PM 39.0219 -98.2006 56° Northeast 463 533 39,000  Level Kansas City Center
03:55PM 39.0942 -98.0631 56° Northeast 462 532 39,000  Level Kansas City Center
03:56PM 39.1675 -97.9275 55° Northeast 463 533 39,000  Level Kansas City Center
03:57PM 39.2425 -97.7881 55° Northeast 461 531 39,000  Level Kansas City Center
03:58PM 39.3164 -97.6528 55° Northeast 462 532 39,000  Level Kansas City Center
03:59PM 39.3942 -97.5144 54° Northeast 461 531 39,000  Level Kansas City Center
04:00PM 39.4786 -97.3656 54° Northeast 459 528 39,000  Level Kansas City Center
04:01PM 39.5556 -97.2267 54° Northeast 457 526 39,000  Level Kansas City Center
04:02PM 39.6331 -97.0978 52° Northeast 456 525 39,000  Level Kansas City Center
04:03PM 39.7083 -96.9650 54° Northeast 457 526 39,000  Level Kansas City Center
04:04PM 39.7864 -96.8358 52° Northeast 455 524 39,000  Level Kansas City Center
04:05PM 39.8633 -96.7067 52° Northeast 453 521 39,000  Level Kansas City Center
04:06PM 39.9408 -96.5769 52° Northeast 454 522 39,000  Level Kansas City Center
04:07PM 39.9967 -96.3897 69° East 462 532 39,000  Level Kansas City Center
04:08PM 40.0403 -96.2331 70° East 463 533 39,000  Level Kansas City Center
04:09PM 40.0753 -96.0628 75° East 464 534 39,000  Level Kansas City Center
04:10PM 40.0958 -95.9031 80° East 466 536 39,000  Level Kansas City Center
04:11PM 40.1183 -95.7142 81° East 469 540 39,000  Level Kansas City Center
04:12PM 40.1372 -95.5525 81° East 469 540 39,000  Level Kansas City Center
04:13PM 40.1567 -95.3897 81° East 470 541 39,000  Level Kansas City Center
04:14PM 40.1792 -95.1961 81° East 477 549 39,000  Level Kansas City Center
04:15PM 40.1981 -95.0328 81° East 475 547 39,000  Level Kansas City Center
04:16PM 40.2200 -94.8411 81° East 474 545 39,000  Level Kansas City Center
04:17PM 40.2381 -94.6739 82° East 481 554 39,000  Level Kansas City Center
04:18PM 40.2606 -94.4789 81° East 484 557 39,000  Level Kansas City Center
04:20PM 40.2967 -94.1525 82° East 485 558 39,000  Level Chicago Center
04:21PM 40.3139 -93.9811 82° East 481 554 39,000  Level Chicago Center
04:22PM 40.3317 -93.8081 82° East 482 555 39,000  Level Chicago Center
04:23PM 40.3500 -93.6378 82° East 478 550 39,000  Level Chicago Center
04:24PM 40.3667 -93.4653 83° East 479 551 39,000  Level Chicago Center
04:25PM 40.3886 -93.2603 82° East 476 548 39,000  Level Chicago Center
04:26PM 40.4047 -93.0878 83° East 480 552 39,000  Level Chicago Center
04:27PM 40.4217 -92.9150 83° East 479 551 39,000  Level Chicago Center
04:28PM 40.4392 -92.7414 82° East 479 551 39,000  Level Chicago Center
04:29PM 40.4558 -92.5639 83° East 483 556 39,000  Level Chicago Center
04:31PM 40.4722 -92.3872 83° East 483 556 39,000  Level Chicago Center
04:32PM 40.4908 -92.1775 83° East 483 556 39,000 -120 Level Chicago Center
04:33PM 40.5064 -92.0017 83° East 487 560 38,800 -600 Descending Chicago Center
04:34PM 40.5219 -91.8272 83° East 486 559 37,800 -1,020 Descending Chicago Center
04:35PM 40.5369 -91.6528 83° East 485 558 36,800 -1,740 Descending Chicago Center
04:36PM 40.5508 -91.4786 84° East 484 557 34,300 -2,520 Descending Chicago Center
04:37PM 40.5683 -91.2708 84° East 480 552 31,600 -1,620 Descending Chicago Center
04:38PM 40.5800 -91.1272 84° East 468 539 31,000 -540 Descending Chicago Center
04:39PM 40.5975 -90.9206 84° East 473 544 30,500 -720 Descending Chicago Center
04:40PM 40.6106 -90.7444 84° East 483 556 29,600 -960 Descending Chicago Center
04:41PM 40.6242 -90.5636 84° East 494 568 28,600 -1,020 Descending Chicago Center
04:42PM 40.6375 -90.3839 84° East 495 570 27,600 -1,020 Descending Chicago Center
04:43PM 40.6500 -90.2075 85° East 497 572 26,600 -1,080 Descending Chicago Center
04:44PM 40.6647 -89.9997 85° East 480 552 25,400 -1,080 Descending Chicago Center
04:45PM 40.6753 -89.8317 85° East 469 540 24,400 -1,260 Descending Chicago Center
04:46PM 40.7269 -89.6844 65° Northeast 444 511 22,900 -1,800 Descending Chicago Center
04:47PM 40.7850 -89.5486 61° Northeast 426 490 20,700 -2,220 Descending Chicago Center
04:48PM 40.8486 -89.4031 60° Northeast 402 463 18,400 -1,860 Descending Chicago Center
04:49PM 40.9011 -89.2794 61° Northeast 388 447 16,900 -720 Descending Chicago Center
04:50PM 40.9528 -89.1592 60° Northeast 379 436 16,900 -360 Level Chicago Center
04:51PM 41.0056 -89.0336 61° Northeast 381 438 16,200 -900 Descending Chicago Center
04:52PM 41.0569 -88.9133 60° Northeast 380 437 15,100 -1,500 Descending Chicago Center
04:53PM 41.1233 -88.8117 49° Northeast 370 426 13,200 -2,340 Descending Chicago Center
04:54PM 41.2167 -88.7056 41° Northeast 370 426 10,300 -1,620 Descending Chicago Center
04:55PM 41.2856 -88.6247 41° Northeast 343 395 9,900 -1,080 Descending Chicago Center
04:56PM 41.3467 -88.5544 41° Northeast 308 354 8,100 -1,680 Descending Chicago Center
04:57PM 41.3997 -88.4778 47° Northeast 298 343 6,500 -1,020 Descending Chicago Center
04:58PM 41.4383 -88.3919 59° Northeast 280 322 6,000 -300 Descending Chicago Center
04:59PM 41.4769 -88.3078 59° Northeast 272 313 6,000 -60 Level Chicago Center
05:01PM 41.5233 -88.2044 59° Northeast 270 311 5,900 -540 Descending Chicago Center
05:02PM 41.5631 -88.1197 58° Northeast 268 308 4,900 -960 Descending Chicago Center
05:03PM 41.6000 -88.0358 59° Northeast 265 305 4,000 -480 Descending Chicago Center
05:04PM 41.6325 -87.9642 59° Northeast 242 278 4,000 -180 Level Chicago Center
05:05PM 41.6656 -87.8997 56° Northeast 223 257 3,700 -660 Descending Chicago Center
05:06PM 41.7064 -87.8511 42° Northeast 206 237 2,700 -1,020 Descending Chicago Center
05:07PM 41.7431 -87.8047 43° Northeast 173 199 1,700 -840 Descending Chicago Center
05:08PM 41.7683 -87.7744 42° Northeast 144 166 1,000 -720 Descending Chicago Center
05:10PM 41.7833 -87.7500 North  Level FlightAware Approximate